Time;durP1;ratioP1;P1;durP2;ratioP2;P2;SDS_P1;SDS_P2;PMS_P1;PMS_P2;Temp;Humidity;BMP_temperature;BMP_pressure;BME280_temperature;BME280_humidity;BME280_pressure;Samples;Min_cycle;Max_cycle;Signal;HPM_P1;HPM_P2
2022/07/27 00:01:59;;;;;;;0.75;0.68;;;20.10;99.90;;;;;;4956994;28;20557;-64
2022/07/27 00:04:25;;;;;;;2.47;0.82;;;20.20;99.90;;;;;;4957160;28;20027;-63
2022/07/27 00:06:50;;;;;;;1.05;0.70;;;20.20;99.90;;;;;;4957121;28;20036;-64
2022/07/27 00:09:18;;;;;;;0.77;0.75;;;20.30;99.90;;;;;;4957898;28;20031;-64
2022/07/27 00:11:44;;;;;;;0.82;0.80;;;20.10;99.90;;;;;;4958073;28;20023;-64
2022/07/27 00:14:10;;;;;;;3.78;0.85;;;20.20;99.90;;;;;;4956687;28;20024;-64
2022/07/27 00:16:36;;;;;;;2.13;0.90;;;20.30;99.90;;;;;;4956669;28;20031;-64
2022/07/27 00:19:02;;;;;;;2.63;0.90;;;20.40;99.90;;;;;;4956627;28;20031;-63
2022/07/27 00:21:27;;;;;;;1.67;0.80;;;20.40;99.90;;;;;;4956557;28;20114;-64
2022/07/27 00:23:53;;;;;;;1.98;0.70;;;20.30;99.90;;;;;;4956479;28;20078;-64
2022/07/27 00:26:19;;;;;;;0.73;0.60;;;20.20;99.90;;;;;;4956578;28;20028;-64
2022/07/27 00:28:44;;;;;;;1.92;0.73;;;20.20;99.90;;;;;;4956499;28;20053;-64
2022/07/27 00:31:10;;;;;;;0.75;0.73;;;20.30;99.90;;;;;;4956712;28;20122;-64
2022/07/27 00:33:35;;;;;;;2.45;0.80;;;20.10;99.90;;;;;;4957347;28;20030;-64
2022/07/27 00:36:01;;;;;;;1.85;0.60;;;20.00;99.90;;;;;;4957470;28;20027;-64
2022/07/27 00:38:27;;;;;;;1.13;0.90;;;20.00;99.90;;;;;;4956055;28;20027;-64
2022/07/27 00:40:53;;;;;;;2.30;0.80;;;20.00;99.90;;;;;;4956277;28;20023;-64
2022/07/27 00:43:19;;;;;;;1.25;0.82;;;19.90;99.90;;;;;;4957062;28;20111;-64
2022/07/27 00:45:45;;;;;;;2.47;0.90;;;19.90;99.90;;;;;;4955883;28;20031;-64
2022/07/27 00:48:11;;;;;;;3.33;0.90;;;19.70;99.90;;;;;;4957392;28;20031;-64
2022/07/27 00:50:37;;;;;;;4.32;0.95;;;19.80;99.90;;;;;;4957244;28;20036;-64
2022/07/27 00:53:03;;;;;;;2.85;0.90;;;19.70;99.90;;;;;;4955707;28;20486;-63
2022/07/27 00:55:32;;;;;;;2.60;0.80;;;19.70;99.90;;;;;;4956154;28;20028;-64
2022/07/27 00:57:58;;;;;;;1.20;0.80;;;19.70;99.90;;;;;;4957111;28;20057;-64
2022/07/27 01:00:24;;;;;;;3.72;0.80;;;19.70;99.90;;;;;;4955724;28;20047;-64
2022/07/27 01:02:50;;;;;;;0.60;0.57;;;19.70;99.90;;;;;;4955961;28;20109;-64
2022/07/27 01:05:16;;;;;;;1.40;0.80;;;19.80;99.90;;;;;;4955992;29;20058;-64
2022/07/27 01:07:42;;;;;;;0.75;0.75;;;19.90;99.90;;;;;;4955858;28;20034;-64
2022/07/27 01:10:08;;;;;;;1.08;0.65;;;19.90;99.90;;;;;;4955545;28;20125;-64
2022/07/27 01:12:33;;;;;;;3.22;1.20;;;20.00;99.90;;;;;;4955652;28;20027;-64
2022/07/27 01:14:59;;;;;;;2.60;1.08;;;20.20;99.90;;;;;;4957233;28;20102;-64
2022/07/27 01:17:29;;;;;;;1.58;0.70;;;20.10;99.90;;;;;;4956656;28;20466;-64
2022/07/27 01:19:56;;;;;;;2.33;0.90;;;20.20;99.90;;;;;;4955350;28;20055;-64
2022/07/27 01:22:22;;;;;;;3.60;0.75;;;20.10;99.90;;;;;;4956305;28;20090;-64
2022/07/27 01:24:49;;;;;;;1.27;0.95;;;20.00;99.90;;;;;;4955348;28;20385;-63
2022/07/27 01:27:14;;;;;;;0.93;0.70;;;19.90;99.90;;;;;;4956224;28;20035;-64
2022/07/27 01:29:40;;;;;;;4.05;0.80;;;19.90;99.90;;;;;;4956262;28;20074;-64
2022/07/27 01:32:06;;;;;;;2.67;1.00;;;19.90;99.90;;;;;;4955391;28;20031;-64
2022/07/27 01:34:32;;;;;;;3.80;1.13;;;20.00;99.90;;;;;;4956418;28;20031;-63
2022/07/27 01:36:59;;;;;;;0.77;0.60;;;19.90;99.90;;;;;;4955008;28;20027;-64
2022/07/27 01:39:25;;;;;;;2.78;0.88;;;19.70;99.90;;;;;;4956346;28;20030;-64
2022/07/27 01:41:51;;;;;;;1.70;0.80;;;19.70;99.90;;;;;;4955058;28;20027;-64
2022/07/27 01:44:17;;;;;;;0.88;0.65;;;19.70;99.90;;;;;;4955301;28;20027;-63
2022/07/27 01:46:43;;;;;;;2.95;0.98;;;19.70;99.90;;;;;;4954972;28;20030;-64
2022/07/27 01:49:08;;;;;;;1.65;0.95;;;19.60;99.90;;;;;;4955003;28;20038;-64
2022/07/27 01:51:34;;;;;;;1.50;0.70;;;19.50;99.90;;;;;;4954234;28;20030;-64
2022/07/27 01:53:59;;;;;;;5.85;1.10;;;19.60;99.90;;;;;;4955012;28;20031;-62
2022/07/27 01:56:25;;;;;;;3.80;1.00;;;19.70;99.90;;;;;;4956030;28;20054;-62
2022/07/27 01:58:51;;;;;;;6.35;1.00;;;19.60;99.90;;;;;;4954680;28;20023;-62
2022/07/27 02:01:17;;;;;;;3.33;1.13;;;19.50;99.90;;;;;;4955688;28;20034;-62
2022/07/27 02:03:42;;;;;;;2.03;0.90;;;19.40;99.90;;;;;;4956080;28;20107;-62
2022/07/27 02:06:08;;;;;;;2.22;0.98;;;19.30;99.90;;;;;;4954619;28;20033;-62
2022/07/27 02:08:34;;;;;;;2.10;1.10;;;19.40;99.90;;;;;;4954463;28;20028;-62
2022/07/27 02:13:46;;;;;;;2.25;1.10;;;19.50;99.90;;;;;;4956250;29;20122;-62
2022/07/27 02:16:12;;;;;;;4.80;1.48;;;19.50;99.90;;;;;;4954530;28;20059;-62
2022/07/27 02:18:38;;;;;;;4.55;1.20;;;19.40;99.90;;;;;;4955970;28;20024;-62
2022/07/27 02:21:05;;;;;;;2.40;0.85;;;19.40;99.90;;;;;;4955783;28;20030;-62
2022/07/27 02:23:32;;;;;;;1.95;1.10;;;19.50;99.90;;;;;;4955421;28;20031;-62
2022/07/27 02:25:58;;;;;;;7.60;1.10;;;19.50;99.90;;;;;;4955755;28;20034;-62
2022/07/27 02:28:23;;;;;;;4.50;1.38;;;19.50;99.90;;;;;;4955460;28;20027;-62
2022/07/27 02:30:49;;;;;;;4.18;1.10;;;19.40;99.90;;;;;;4955270;28;20023;-62
2022/07/27 02:33:15;;;;;;;2.03;0.82;;;19.50;99.90;;;;;;4955559;28;20038;-62
2022/07/27 02:35:41;;;;;;;2.03;1.00;;;19.50;99.90;;;;;;4954414;28;20154;-62
2022/07/27 02:38:07;;;;;;;2.88;1.00;;;19.50;99.90;;;;;;4954425;28;20051;-62
2022/07/27 02:40:33;;;;;;;2.88;1.00;;;19.20;99.90;;;;;;4955426;28;20024;-62
2022/07/27 02:42:58;;;;;;;2.75;1.25;;;19.20;99.90;;;;;;4954710;28;20036;-62
2022/07/27 02:45:24;;;;;;;10.23;1.45;;;19.20;99.90;;;;;;4955605;28;20086;-62
2022/07/27 02:47:49;;;;;;;5.47;1.20;;;18.90;99.90;;;;;;4953880;28;20478;-62
2022/07/27 02:50:15;;;;;;;1.80;1.10;;;18.70;99.90;;;;;;4953975;28;20038;-62
2022/07/27 02:52:41;;;;;;;2.15;1.42;;;18.50;99.90;;;;;;4954679;28;20027;-62
2022/07/27 02:55:08;;;;;;;5.95;0.90;;;18.60;99.90;;;;;;4953976;28;20054;-62
2022/07/27 02:57:36;;;;;;;2.92;0.88;;;18.50;99.90;;;;;;4953774;28;20071;-60
2022/07/27 03:00:04;;;;;;;1.90;0.95;;;18.50;99.90;;;;;;4955446;28;20019;-60
2022/07/27 03:02:30;;;;;;;6.43;1.25;;;18.60;99.90;;;;;;4955996;28;20023;-64
2022/07/27 03:04:55;;;;;;;2.20;1.08;;;18.40;99.90;;;;;;4957578;28;20122;-64
2022/07/27 03:07:21;;;;;;;3.95;1.17;;;18.30;99.90;;;;;;4957941;28;20051;-62
2022/07/27 03:09:46;;;;;;;5.10;1.48;;;18.30;99.90;;;;;;4957426;28;20082;-62
2022/07/27 03:12:12;;;;;;;4.30;1.02;;;18.20;99.90;;;;;;4957611;28;20035;-62
2022/07/27 03:14:38;;;;;;;6.75;1.85;;;18.10;99.90;;;;;;4957404;28;20078;-62
2022/07/27 03:17:03;;;;;;;3.15;1.15;;;18.10;99.90;;;;;;4959156;28;20027;-62
2022/07/27 03:19:29;;;;;;;4.40;1.40;;;18.20;99.90;;;;;;4957795;28;20031;-62
2022/07/27 03:21:54;;;;;;;4.75;1.17;;;18.30;99.90;;;;;;4957363;28;20019;-62
2022/07/27 03:24:20;;;;;;;2.50;1.23;;;18.20;99.90;;;;;;4957369;28;20118;-62
2022/07/27 03:26:45;;;;;;;6.03;1.50;;;18.20;99.90;;;;;;4957225;28;20034;-62
2022/07/27 03:29:12;;;;;;;5.30;1.13;;;18.30;99.90;;;;;;4957228;28;20114;-62
2022/07/27 03:31:37;;;;;;;6.45;1.35;;;18.30;99.90;;;;;;4957151;28;20031;-62
2022/07/27 03:34:03;;;;;;;4.50;1.23;;;18.40;99.90;;;;;;4957586;28;20047;-62
2022/07/27 03:36:29;;;;;;;3.88;1.30;;;18.30;99.90;;;;;;4957122;28;20031;-62
2022/07/27 03:38:54;;;;;;;5.32;1.60;;;18.30;99.90;;;;;;4956980;28;20030;-62
2022/07/27 03:41:20;;;;;;;4.57;1.00;;;18.30;99.90;;;;;;4957411;28;20046;-62
2022/07/27 03:43:46;;;;;;;5.85;1.35;;;18.20;99.90;;;;;;4958246;28;20078;-62
2022/07/27 03:46:12;;;;;;;4.75;1.20;;;18.10;99.90;;;;;;4957607;28;20023;-62
2022/07/27 03:48:39;;;;;;;4.57;1.50;;;18.00;99.90;;;;;;4956823;28;20046;-62
2022/07/27 03:51:04;;;;;;;2.92;1.10;;;18.00;99.90;;;;;;4958873;28;20024;-62
2022/07/27 03:53:30;;;;;;;4.05;1.48;;;17.90;99.90;;;;;;4958513;28;20027;-62
2022/07/27 03:55:56;;;;;;;2.35;1.00;;;17.80;99.90;;;;;;4957124;28;20026;-62
2022/07/27 03:58:22;;;;;;;8.63;1.40;;;17.80;99.90;;;;;;4956634;28;20090;-62
2022/07/27 04:00:48;;;;;;;5.90;1.35;;;17.90;99.90;;;;;;4956936;28;20390;-62
2022/07/27 04:03:14;;;;;;;4.72;1.17;;;17.80;99.90;;;;;;4956921;28;20054;-63
2022/07/27 04:05:39;;;;;;;6.75;1.40;;;17.70;99.90;;;;;;4957401;28;20054;-62
2022/07/27 04:08:05;;;;;;;3.60;1.42;;;17.70;99.90;;;;;;4957923;28;20027;-62
2022/07/27 04:10:31;;;;;;;3.50;1.52;;;17.70;99.90;;;;;;4956588;28;20023;-61
2022/07/27 04:12:56;;;;;;;4.53;1.75;;;17.70;99.90;;;;;;4955991;28;20031;-61
2022/07/27 04:15:22;;;;;;;4.45;1.40;;;17.80;99.90;;;;;;4957357;28;20099;-62
2022/07/27 04:17:48;;;;;;;3.17;1.13;;;17.90;99.90;;;;;;4958097;28;20044;-62
2022/07/27 04:20:13;;;;;;;1.92;0.90;;;18.00;99.90;;;;;;4956234;28;20019;-62
2022/07/27 04:22:39;;;;;;;9.38;3.03;;;18.10;99.90;;;;;;4956360;28;20019;-62
2022/07/27 04:25:05;;;;;;;4.72;1.40;;;18.20;99.90;;;;;;4956589;28;20023;-62
2022/07/27 04:27:31;;;;;;;1.73;0.90;;;18.30;99.90;;;;;;4956101;28;20397;-62
2022/07/27 04:29:57;;;;;;;3.17;1.20;;;18.30;99.90;;;;;;4957220;28;20094;-62
2022/07/27 04:32:22;;;;;;;4.45;1.30;;;18.40;99.90;;;;;;4956199;28;20050;-62
2022/07/27 04:34:48;;;;;;;2.65;1.17;;;18.50;99.90;;;;;;4955994;28;20027;-62
2022/07/27 04:37:14;;;;;;;5.88;1.40;;;18.60;99.90;;;;;;4957260;28;20490;-62
2022/07/27 04:39:39;;;;;;;2.38;1.27;;;18.50;99.90;;;;;;4956165;28;20042;-62
2022/07/27 04:42:05;;;;;;;5.10;1.20;;;18.60;99.90;;;;;;4955924;28;20393;-62
2022/07/27 04:44:31;;;;;;;3.75;1.17;;;18.70;99.90;;;;;;4956900;28;20501;-62
2022/07/27 04:46:56;;;;;;;9.73;2.03;;;18.60;99.90;;;;;;4956073;28;20118;-62
2022/07/27 04:49:22;;;;;;;3.40;0.90;;;18.60;99.90;;;;;;4955877;28;20078;-62
2022/07/27 04:51:48;;;;;;;3.63;1.42;;;18.70;99.90;;;;;;4956526;28;20077;-62
2022/07/27 04:54:13;;;;;;;4.70;1.50;;;18.50;99.90;;;;;;4956536;28;20031;-62
2022/07/27 04:56:39;;;;;;;4.65;1.27;;;18.50;99.90;;;;;;4956864;28;20023;-62
2022/07/27 04:59:04;;;;;;;5.10;1.38;;;18.30;99.90;;;;;;4955682;28;20062;-62
2022/07/27 05:01:30;;;;;;;3.00;1.02;;;18.10;99.90;;;;;;4956759;28;20091;-62
2022/07/27 05:03:55;;;;;;;7.45;1.33;;;18.30;99.90;;;;;;4956723;28;20030;-62
2022/07/27 05:06:21;;;;;;;3.17;1.08;;;18.20;99.90;;;;;;4955454;28;20613;-62
2022/07/27 05:08:58;;;;;;;3.70;1.23;;;18.40;99.90;;;;;;4957018;28;20031;-64
2022/07/27 05:11:24;;;;;;;8.02;1.30;;;18.40;99.90;;;;;;4955553;28;20122;-62
2022/07/27 05:13:49;;;;;;;4.38;1.17;;;18.70;99.90;;;;;;4956865;28;20664;-62
2022/07/27 05:16:15;;;;;;;2.08;0.90;;;19.00;99.90;;;;;;4955652;28;20019;-62
2022/07/27 05:18:41;;;;;;;4.10;1.40;;;19.20;99.90;;;;;;4955257;28;20166;-62
2022/07/27 05:21:08;;;;;;;3.35;0.93;;;19.30;99.90;;;;;;4956529;28;20046;-62
2022/07/27 05:23:34;;;;;;;3.55;1.15;;;19.50;99.90;;;;;;4955665;28;20023;-62
2022/07/27 05:26:00;;;;;;;4.15;1.10;;;19.70;99.90;;;;;;4955623;28;20031;-62
2022/07/27 05:28:26;;;;;;;2.55;1.17;;;19.70;99.90;;;;;;4956481;28;20023;-62
2022/07/27 05:30:52;;;;;;;5.95;0.80;;;19.70;99.90;;;;;;4956312;28;20035;-62
2022/07/27 05:33:18;;;;;;;9.52;1.80;;;19.50;99.90;;;;;;4956455;28;20062;-62
2022/07/27 05:35:43;;;;;;;5.13;1.20;;;19.50;99.90;;;;;;4956184;28;20027;-62
2022/07/27 05:38:09;;;;;;;2.72;0.90;;;19.30;99.90;;;;;;4954940;28;20095;-64
2022/07/27 05:40:34;;;;;;;5.53;1.08;;;19.20;99.90;;;;;;4954927;28;20030;-64
2022/07/27 05:43:00;;;;;;;2.88;0.95;;;19.20;99.90;;;;;;4954941;28;20095;-67
2022/07/27 05:45:26;;;;;;;1.77;0.80;;;19.10;99.90;;;;;;4956302;28;20031;-68
2022/07/27 05:47:53;;;;;;;4.22;1.33;;;19.10;99.90;;;;;;4956067;28;20027;-67
2022/07/27 05:50:19;;;;;;;2.65;0.88;;;19.20;99.90;;;;;;4955267;28;20448;-68
2022/07/27 05:52:57;;;;;;;3.15;1.05;;;19.30;99.90;;;;;;4955373;28;20390;-69
2022/07/27 05:55:23;;;;;;;7.75;2.00;;;19.60;99.90;;;;;;4956183;28;20019;-68
2022/07/27 05:57:49;;;;;;;5.20;1.48;;;20.00;99.90;;;;;;4955464;28;20081;-68
2022/07/27 06:00:15;;;;;;;5.45;1.10;;;20.10;99.90;;;;;;4955776;28;20031;-65
2022/07/27 06:02:40;;;;;;;5.00;1.55;;;19.90;99.90;;;;;;4955546;28;20050;-63
2022/07/27 06:05:06;;;;;;;5.40;0.90;;;19.50;99.90;;;;;;4955599;28;20063;-63
2022/07/27 06:10:17;;;;;;;8.13;0.90;;;19.60;99.90;;;;;;4956008;29;20038;-63
2022/07/27 06:12:44;;;;;;;1.88;0.70;;;19.70;99.90;;;;;;4954357;28;20027;-63
2022/07/27 06:15:10;;;;;;;2.03;0.77;;;19.80;99.90;;;;;;4954284;28;20024;-64
2022/07/27 06:17:36;;;;;;;3.35;1.02;;;20.10;99.90;;;;;;4954435;28;20023;-63
2022/07/27 06:20:07;;;;;;;4.15;0.80;;;20.60;99.90;;;;;;4955661;28;20081;-67
2022/07/27 06:22:42;;;;;;;4.63;1.35;;;21.00;99.90;;;;;;4954503;28;20023;-68
2022/07/27 06:25:08;;;;;;;5.32;0.93;;;21.40;99.90;;;;;;4954436;28;20094;-67
2022/07/27 06:27:36;;;;;;;1.73;0.63;;;21.90;99.90;;;;;;4954303;28;20055;-66
2022/07/27 06:30:03;;;;;;;4.05;0.77;;;22.50;99.90;;;;;;4954258;28;20030;-65
2022/07/27 06:32:28;;;;;;;2.60;0.73;;;23.50;99.90;;;;;;4954247;28;20031;-65
2022/07/27 06:34:54;;;;;;;4.20;0.73;;;24.00;99.90;;;;;;4954172;28;20027;-67
2022/07/27 06:37:19;;;;;;;4.57;0.80;;;23.90;99.90;;;;;;4953728;28;20031;-66
2022/07/27 06:39:45;;;;;;;6.20;0.77;;;23.80;99.90;;;;;;4955110;28;20027;-65
2022/07/27 06:42:13;;;;;;;5.75;1.02;;;24.20;99.90;;;;;;4954026;28;20030;-65
2022/07/27 06:44:39;;;;;;;2.20;0.80;;;25.00;99.90;;;;;;4954063;28;20027;-67
2022/07/27 06:47:06;;;;;;;2.95;1.05;;;25.40;99.50;;;;;;4954984;28;20023;-64
2022/07/27 06:49:32;;;;;;;2.28;1.20;;;25.70;97.10;;;;;;4955129;28;20039;-63
2022/07/27 06:51:57;;;;;;;3.95;0.93;;;24.20;96.40;;;;;;4955249;28;20442;-64
2022/07/27 06:54:23;;;;;;;2.38;0.77;;;24.70;97.00;;;;;;4955187;28;20035;-63
2022/07/27 06:56:49;;;;;;;6.78;1.40;;;24.90;95.90;;;;;;4954435;28;20024;-63
2022/07/27 06:59:14;;;;;;;4.28;0.98;;;23.80;95.80;;;;;;4954476;28;20061;-63
2022/07/27 07:01:40;;;;;;;2.38;0.90;;;24.00;98.60;;;;;;4956131;28;20166;-64
2022/07/27 07:04:06;;;;;;;1.98;0.70;;;25.50;96.60;;;;;;4956680;28;20034;-66
2022/07/27 07:06:31;;;;;;;3.75;1.13;;;26.20;95.40;;;;;;4955648;28;20118;-65
2022/07/27 07:08:57;;;;;;;9.35;1.67;;;26.90;90.70;;;;;;4954666;28;20035;-64
2022/07/27 07:11:23;;;;;;;6.18;0.73;;;26.40;89.70;;;;;;4956295;28;20037;-64
2022/07/27 07:13:48;;;;;;;5.70;1.45;;;26.90;90.90;;;;;;4956543;28;20028;-64
2022/07/27 07:16:14;;;;;;;4.28;1.25;;;27.30;87.60;;;;;;4954681;28;20441;-64
2022/07/27 07:18:39;;;;;;;5.40;0.75;;;27.00;88.30;;;;;;4954698;28;20020;-64
2022/07/27 07:21:05;;;;;;;4.57;1.08;;;27.80;87.40;;;;;;4956441;28;20467;-64
2022/07/27 07:23:31;;;;;;;3.17;0.98;;;28.60;84.80;;;;;;4956699;28;20159;-64
2022/07/27 07:25:56;;;;;;;6.80;1.20;;;29.80;81.00;;;;;;4957153;28;20114;-65
2022/07/27 07:28:22;;;;;;;2.55;1.33;;;30.70;79.10;;;;;;4958003;28;20059;-65
2022/07/27 07:30:48;;;;;;;1.80;0.90;;;31.20;75.20;;;;;;4957614;28;20045;-65
2022/07/27 07:33:14;;;;;;;3.78;0.95;;;31.60;70.00;;;;;;4957738;28;20482;-65
2022/07/27 07:35:40;;;;;;;3.13;0.90;;;31.90;70.20;;;;;;4958088;28;20023;-65
2022/07/27 07:38:05;;;;;;;4.72;0.98;;;32.20;70.70;;;;;;4956717;28;20023;-64
2022/07/27 07:40:31;;;;;;;6.60;0.93;;;32.30;67.80;;;;;;4955896;28;20027;-64
2022/07/27 07:43:00;;;;;;;7.38;1.52;;;30.70;65.30;;;;;;4955970;28;20053;-64
2022/07/27 07:45:27;;;;;;;6.50;1.38;;;29.10;68.40;;;;;;4955840;28;20023;-64
2022/07/27 07:47:53;;;;;;;12.57;2.40;;;28.70;70.00;;;;;;4957880;28;20031;-64
2022/07/27 07:50:19;;;;;;;6.15;2.45;;;28.70;69.20;;;;;;4961996;28;20090;-64
2022/07/27 07:52:48;;;;;;;6.80;2.10;;;29.30;69.70;;;;;;4965627;28;20023;-64
2022/07/27 07:55:13;;;;;;;3.03;1.15;;;29.80;66.60;;;;;;4959466;28;20023;-64
2022/07/27 07:57:39;;;;;;;5.57;1.23;;;28.50;67.10;;;;;;4959480;28;20023;-64
2022/07/27 08:00:08;;;;;;;5.57;1.10;;;28.10;68.20;;;;;;4959596;28;20074;-64
2022/07/27 08:02:45;;;;;;;3.17;0.70;;;27.50;69.70;;;;;;4959459;28;20033;-64
2022/07/27 08:05:11;;;;;;;5.10;0.98;;;27.60;69.60;;;;;;4960876;28;20038;-64
2022/07/27 08:07:37;;;;;;;2.70;1.00;;;27.50;69.10;;;;;;4960542;28;20027;-63
2022/07/27 08:10:04;;;;;;;5.15;0.98;;;26.70;70.00;;;;;;4957472;28;20030;-64
2022/07/27 08:12:30;;;;;;;3.17;1.20;;;26.30;72.40;;;;;;4957644;28;20035;-64
2022/07/27 08:14:56;;;;;;;5.53;1.50;;;27.10;73.30;;;;;;4957316;28;20055;-64
2022/07/27 08:17:21;;;;;;;4.07;1.00;;;27.90;69.10;;;;;;4956790;28;20023;-64
2022/07/27 08:19:47;;;;;;;6.95;1.00;;;28.40;69.10;;;;;;4956378;28;20506;-65
2022/07/27 08:22:12;;;;;;;7.22;1.23;;;28.90;69.30;;;;;;4956423;28;20023;-65
2022/07/27 08:24:38;;;;;;;2.97;0.85;;;29.80;68.60;;;;;;4956388;28;20034;-65
2022/07/27 08:27:04;;;;;;;3.72;1.00;;;30.60;70.20;;;;;;4956395;28;20154;-65
2022/07/27 08:29:29;;;;;;;2.00;0.80;;;32.10;64.40;;;;;;4959423;28;20027;-65
2022/07/27 08:31:55;;;;;;;2.40;1.05;;;32.90;62.80;;;;;;4956685;28;20089;-65
2022/07/27 08:34:20;;;;;;;2.78;0.90;;;34.20;60.90;;;;;;4956403;28;20396;-65
2022/07/27 08:36:46;;;;;;;2.13;1.00;;;34.90;58.40;;;;;;4956495;28;20027;-65
2022/07/27 08:39:12;;;;;;;4.55;0.90;;;33.80;58.10;;;;;;4957519;28;20497;-65
2022/07/27 08:41:41;;;;;;;1.55;0.77;;;32.40;59.10;;;;;;4956489;28;20015;-65
2022/07/27 08:44:10;;;;;;;3.20;0.60;;;32.70;59.00;;;;;;4957625;28;20024;-65
2022/07/27 08:46:38;;;;;;;5.78;1.05;;;32.20;59.20;;;;;;4955931;28;20034;-64
2022/07/27 08:49:06;;;;;;;4.32;1.15;;;30.30;61.70;;;;;;4957061;28;20109;-67
2022/07/27 08:51:31;;;;;;;4.13;1.02;;;29.40;63.30;;;;;;4955934;28;20122;-65
2022/07/27 08:53:57;;;;;;;2.05;0.88;;;27.80;66.10;;;;;;4955704;28;20106;-67
2022/07/27 08:56:23;;;;;;;2.28;1.00;;;28.80;65.60;;;;;;4956987;28;20019;-68
2022/07/27 08:58:49;;;;;;;4.40;0.93;;;30.80;64.50;;;;;;4956806;28;20078;-67
2022/07/27 09:01:14;;;;;;;5.15;0.85;;;32.30;62.00;;;;;;4956549;28;20474;-68
2022/07/27 09:03:40;;;;;;;4.60;0.73;;;32.80;59.70;;;;;;4957103;28;20106;-68
2022/07/27 09:06:06;;;;;;;2.47;0.90;;;32.50;59.70;;;;;;4957141;28;20114;-68
2022/07/27 09:08:32;;;;;;;5.55;1.08;;;32.10;59.10;;;;;;4956226;28;20063;-67
2022/07/27 09:10:59;;;;;;;1.58;0.80;;;31.30;61.30;;;;;;4956841;28;20047;-67
2022/07/27 09:13:30;;;;;;;3.33;0.77;;;30.80;60.70;;;;;;4955505;28;20110;-67
2022/07/27 09:15:58;;;;;;;3.75;1.17;;;31.30;60.80;;;;;;4955709;28;20034;-68
2022/07/27 09:18:26;;;;;;;3.35;1.10;;;32.70;57.80;;;;;;4955282;28;20031;-67
2022/07/27 09:21:12;;;;;;;6.38;1.10;;;32.40;57.90;;;;;;4956577;28;20520;-68
2022/07/27 09:23:39;;;;;;;2.60;1.00;;;32.90;56.80;;;;;;4956084;28;20086;-68
2022/07/27 09:26:27;;;;;;;3.10;0.90;;;34.00;55.90;;;;;;4955199;28;20027;-67
2022/07/27 09:29:01;;;;;;;4.43;1.00;;;32.50;56.20;;;;;;4955095;28;20050;-67
2022/07/27 09:31:28;;;;;;;3.85;0.98;;;30.50;58.80;;;;;;4955064;29;20051;-67
2022/07/27 09:33:57;;;;;;;4.07;1.00;;;30.30;59.10;;;;;;4954946;28;20031;-67
2022/07/27 09:36:24;;;;;;;12.27;1.58;;;31.40;58.30;;;;;;4955211;28;20470;-67
2022/07/27 09:38:58;;;;;;;2.92;0.80;;;32.10;56.90;;;;;;4955478;28;20042;-67
2022/07/27 09:41:23;;;;;;;4.13;0.98;;;32.30;57.70;;;;;;4954972;28;20023;-67
2022/07/27 09:43:54;;;;;;;5.43;1.05;;;32.30;55.40;;;;;;4955172;28;20082;-67
2022/07/27 09:46:34;;;;;;;3.80;1.02;;;31.10;57.20;;;;;;4955194;28;20042;-67
2022/07/27 09:49:01;;;;;;;2.03;0.82;;;32.40;57.30;;;;;;4956424;28;20035;-68
2022/07/27 09:51:27;;;;;;;2.47;0.90;;;34.60;55.20;;;;;;4956236;28;20167;-67
2022/07/27 09:53:54;;;;;;;2.88;0.90;;;32.60;54.40;;;;;;4954723;28;20031;-67
2022/07/27 09:56:28;;;;;;;2.40;1.10;;;32.10;56.50;;;;;;4954672;28;20038;-67
2022/07/27 09:58:55;;;;;;;2.75;0.80;;;31.70;57.00;;;;;;4954690;28;20035;-68
2022/07/27 10:01:27;;;;;;;3.95;0.90;;;33.20;56.30;;;;;;4955536;28;20371;-68
2022/07/27 10:03:59;;;;;;;3.95;0.85;;;34.10;53.90;;;;;;4954631;28;20027;-68
2022/07/27 10:06:26;;;;;;;2.58;0.73;;;34.20;53.60;;;;;;4955351;28;20031;-68
2022/07/27 10:08:53;;;;;;;2.75;1.15;;;33.80;53.30;;;;;;4954716;28;20126;-68
2022/07/27 10:11:19;;;;;;;4.82;1.10;;;33.40;54.10;;;;;;4954104;28;20034;-67
2022/07/27 10:13:46;;;;;;;3.30;0.93;;;32.90;54.40;;;;;;4954679;28;20110;-67
2022/07/27 10:16:16;;;;;;;3.38;0.90;;;31.60;56.00;;;;;;4954424;28;20118;-67
2022/07/27 10:19:06;;;;;;;4.72;1.27;;;31.20;56.20;;;;;;4955512;28;20078;-67
2022/07/27 10:21:34;;;;;;;1.40;0.85;;;31.10;56.10;;;;;;4955537;28;20023;-68
2022/07/27 10:24:05;;;;;;;5.00;1.27;;;32.30;56.20;;;;;;4954566;28;20049;-68
2022/07/27 10:26:40;;;;;;;5.30;1.35;;;32.60;54.30;;;;;;4954296;28;20580;-68
2022/07/27 10:29:17;;;;;;;3.25;1.23;;;32.30;55.30;;;;;;4955490;28;20038;-68
2022/07/27 10:31:57;;;;;;;3.97;1.20;;;32.80;55.20;;;;;;4955508;28;20027;-67
2022/07/27 10:34:33;;;;;;;2.60;1.02;;;30.50;55.70;;;;;;4955683;28;20059;-67
2022/07/27 10:37:14;;;;;;;4.03;1.50;;;30.30;57.20;;;;;;4955731;28;20023;-65
2022/07/27 10:40:35;;;;;;;3.10;1.10;;;29.80;58.30;;;;;;4954149;28;20027;-64
2022/07/27 10:43:19;;;;;;;3.17;0.90;;;26.80;61.50;;;;;;4954714;28;20028;-64
2022/07/27 10:45:50;;;;;;;3.50;1.02;;;25.70;64.50;;;;;;4955288;28;20027;-65
2022/07/27 10:48:39;;;;;;;0.77;0.68;;;25.70;63.20;;;;;;4955196;28;20038;-65
2022/07/27 10:51:06;;;;;;;2.83;0.82;;;25.30;63.70;;;;;;4955415;28;20086;-65
2022/07/27 10:53:39;;;;;;;3.13;0.88;;;25.60;64.30;;;;;;4955128;28;20030;-65
2022/07/27 10:56:07;;;;;;;2.40;0.93;;;25.80;64.50;;;;;;4953900;28;20063;-65
2022/07/27 10:58:32;;;;;;;2.30;0.80;;;25.80;64.70;;;;;;4955128;28;20027;-65
2022/07/27 11:01:03;;;;;;;1.52;0.60;;;26.60;64.40;;;;;;4955229;28;20082;-65
2022/07/27 11:03:32;;;;;;;0.90;0.60;;;27.20;62.50;;;;;;4953899;28;20028;-65
2022/07/27 11:06:04;;;;;;;3.45;0.73;;;27.60;62.00;;;;;;4953924;28;20118;-65
2022/07/27 11:08:39;;;;;;;3.75;1.10;;;27.30;61.00;;;;;;4954007;28;20058;-65
2022/07/27 11:11:06;;;;;;;4.32;1.23;;;27.00;63.20;;;;;;4954161;28;20050;-65
2022/07/27 11:13:33;;;;;;;4.75;1.10;;;26.60;64.00;;;;;;4953766;28;20050;-64
2022/07/27 11:16:02;;;;;;;6.53;0.90;;;25.20;64.00;;;;;;4954540;28;20078;-65
2022/07/27 11:18:38;;;;;;;3.03;0.85;;;25.30;65.80;;;;;;4953734;28;20090;-65
2022/07/27 11:21:23;;;;;;;1.75;0.85;;;25.40;66.20;;;;;;4953751;28;20020;-65
2022/07/27 11:24:13;;;;;;;1.80;0.70;;;25.90;65.00;;;;;;4957647;28;20035;-65
2022/07/27 11:26:43;;;;;;;1.40;0.70;;;26.20;64.40;;;;;;4973540;28;20061;-65
2022/07/27 11:29:14;;;;;;;3.85;0.75;;;26.50;64.90;;;;;;4957975;28;20034;-65
2022/07/27 11:31:41;;;;;;;2.28;1.17;;;26.70;63.80;;;;;;4958700;28;20031;-65
2022/07/27 11:34:07;;;;;;;4.75;1.08;;;26.70;63.30;;;;;;4957155;28;20031;-65
2022/07/27 11:36:41;;;;;;;2.33;1.00;;;26.00;64.20;;;;;;4958567;28;20026;-65
2022/07/27 11:39:10;;;;;;;4.60;0.93;;;25.30;65.00;;;;;;4957128;28;20023;-65
2022/07/27 11:41:36;;;;;;;1.90;1.10;;;25.70;66.90;;;;;;4957398;28;20023;-65
2022/07/27 11:44:10;;;;;;;1.65;0.90;;;26.40;65.00;;;;;;4957585;28;20038;-65
2022/07/27 11:46:41;;;;;;;5.25;1.35;;;27.00;63.20;;;;;;4958387;29;20034;-65
2022/07/27 11:49:12;;;;;;;2.13;0.85;;;27.30;62.90;;;;;;4957357;28;20118;-65
2022/07/27 11:51:41;;;;;;;1.42;0.80;;;27.60;63.10;;;;;;4957275;28;20041;-65
2022/07/27 11:54:16;;;;;;;1.85;1.00;;;27.80;62.50;;;;;;4956869;28;20074;-64
2022/07/27 11:56:47;;;;;;;1.70;0.70;;;27.40;63.70;;;;;;4956874;28;20023;-65
2022/07/27 11:59:13;;;;;;;;;;;27.00;62.90;;;;;;4957219;28;20020;-65
2022/07/27 12:01:54;;;;;;;3.40;0.90;;;26.70;64.20;;;;;;4958035;28;19913;-65
2022/07/27 12:04:21;;;;;;;;;;;27.10;63.90;;;;;;4957209;28;20031;-65
2022/07/27 12:07:16;;;;;;;2.97;0.85;;;27.60;63.20;;;;;;4958082;28;19913;-65
2022/07/27 12:09:50;;;;;;;1.80;0.45;;;27.70;61.50;;;;;;4957041;28;20027;-65
2022/07/27 12:12:17;;;;;;;2.03;0.80;;;26.60;62.20;;;;;;4956617;28;20035;-65
2022/07/27 12:14:49;;;;;;;2.80;1.00;;;26.60;65.60;;;;;;4957263;28;20038;-65
2022/07/27 12:17:32;;;;;;;3.92;0.70;;;26.90;63.30;;;;;;4956632;28;20023;-64
2022/07/27 12:20:05;;;;;;;4.18;0.85;;;25.90;63.80;;;;;;4957763;28;20106;-64
2022/07/27 12:22:36;;;;;;;1.27;0.95;;;24.90;65.00;;;;;;4957229;28;20078;-64
2022/07/27 12:25:07;;;;;;;1.77;1.05;;;24.10;67.10;;;;;;4956451;28;20027;-64
2022/07/27 12:27:34;;;;;;;1.17;0.70;;;24.00;67.70;;;;;;4957230;28;20058;-65
2022/07/27 12:30:09;;;;;;;2.25;0.70;;;24.10;67.50;;;;;;4956597;28;20031;-65
2022/07/27 12:32:38;;;;;;;3.13;0.73;;;24.60;66.60;;;;;;4957626;28;20057;-65
2022/07/27 12:35:18;;;;;;;1.58;0.82;;;25.20;66.00;;;;;;4955969;28;20082;-65
2022/07/27 12:37:43;;;;;;;1.67;0.52;;;25.80;65.20;;;;;;4955986;28;20074;-65
2022/07/27 12:40:17;;;;;;;1.20;0.70;;;26.10;64.90;;;;;;4956597;28;20031;-65
2022/07/27 12:42:43;;;;;;;1.50;0.65;;;25.90;65.10;;;;;;4956340;28;20413;-65
2022/07/27 12:45:15;;;;;;;6.63;0.98;;;26.10;64.80;;;;;;4955978;28;20030;-65
2022/07/27 12:47:41;;;;;;;1.35;0.60;;;26.50;64.10;;;;;;4957073;28;20046;-65
2022/07/27 12:50:08;;;;;;;4.95;0.60;;;26.70;63.50;;;;;;4955873;28;20035;-65
2022/07/27 12:52:36;;;;;;;1.02;0.63;;;27.00;62.80;;;;;;4956213;28;20031;-65
2022/07/27 12:55:04;;;;;;;3.95;0.77;;;27.30;63.30;;;;;;4955700;28;20034;-65
2022/07/27 12:57:29;;;;;;;2.40;0.60;;;27.40;62.60;;;;;;4955650;28;20037;-65